METAR OBSERVATIONS
Looking Back 6 hours

  • KPBF 240553Z AUTO 04003KT 10SM SCT070 22/20 A3000 RMK AO2 SLP156 T02220200 10272 20222 403060222 50003 =
  • KPBF 240453Z AUTO 04003KT 10SM CLR 22/20 A3000 RMK AO2 SLP157 T02220200 =
  • KPBF 240353Z AUTO 03004KT 10SM CLR 23/19 A3000 RMK AO2 SLP154 T02280194 =
  • KPBF 240253Z AUTO 04006KT 10SM CLR 24/19 A2999 RMK AO2 SLP153 T02390194 52016 =
  • KPBF 240153Z AUTO 03010KT 10SM CLR 25/19 A2998 RMK AO2 SLP148 T02500194 =
  • KPBF 240053Z AUTO 04007KT 10SM CLR 26/21 A2996 RMK AO2 SLP142 T02560206 =
    ________________________________________